Fort Valley, Virginia
Current Conditions -  °F | °C
As of 7:15 PM on Wednesday 22 Oct 2014 (Local Time) from KLUA Reporting Station
Overcast Overcast  
Wind Chill: 54°   Ceiling: 2900
Heat Index: 54°   Visibility: 10mi
Dew Point: 45°   Wind: 5mph
Humidity: 72%   Direction: 360°N
Pressure: 30.04"   Gusts: NA
Location:  38.8°N, 78.46°W
Report Text: KLUA 222315Z AUTO 36004KT 10SM BKN029 OVC035 12/07 A3004 RMK AO2
Loading
Personal Weather Stations






























Interactive Weather Map
Tropical Storm Tracking
New forecast layout! Learn more

10-Day Weather Forecast

Advertisements
Track Severe Weather on mobile